Terminal Aerodrome Forecast
Issued by NWS

Home | Current Version | Previous Version | Graphics & Text | Print | Product List | Glossary On
Versions: 1 2 3 4 5 6 7 8 9 10 11 12
874
FTUS43 KOAX 300520
TAFCDR
TAF
KCDR 300520Z 3006/0106 31023G34KT P6SM OVC080
     FM300800 31017G28KT P6SM OVC080
     FM301700 31022G29KT P6SM OVC100=

USA.gov is the U.S. government's official web portal to all federal, state and local government web resources and services.